Time;durP1;ratioP1;P1;durP2;ratioP2;P2;SDS_P1;SDS_P2;PMS_P1;PMS_P2;Temp;Humidity;BMP_temperature;BMP_pressure;BME280_temperature;BME280_humidity;BME280_pressure;Samples;Min_cycle;Max_cycle;Signal;HPM_P1;HPM_P2
2022/10/01 00:00:38;;;;;;;;;4.00;4.00;;;;;13.00;63.10;98964.19;5037034;28;8887;-60
2022/10/01 00:03:06;;;;;;;;;3.75;3.75;;;;;12.99;63.49;98962.50;5037011;28;9563;-59
2022/10/01 00:05:34;;;;;;;;;9.00;7.50;;;;;12.98;63.57;98936.78;5035969;28;8853;-59
2022/10/01 00:08:01;;;;;;;;;6.50;5.00;;;;;13.00;62.94;98958.84;5036107;28;8840;-60
2022/10/01 00:10:30;;;;;;;;;6.00;4.00;;;;;13.02;63.23;98934.63;5036684;28;8857;-59
2022/10/01 00:12:58;;;;;;;;;7.00;6.00;;;;;13.02;63.59;98932.81;5036715;28;8860;-61
2022/10/01 00:15:26;;;;;;;;;6.00;5.00;;;;;13.05;63.23;98935.16;5036459;28;8835;-58
2022/10/01 00:17:54;;;;;;;;;2.00;2.00;;;;;13.07;62.95;98910.94;5036655;28;9588;-59
2022/10/01 00:20:21;;;;;;;;;6.00;6.00;;;;;13.08;62.86;98917.94;5036426;28;9563;-60
2022/10/01 00:22:49;;;;;;;;;6.00;5.50;;;;;13.08;63.35;98917.94;5036051;28;8864;-59
2022/10/01 00:25:17;;;;;;;;;7.00;7.00;;;;;13.08;63.51;98912.59;5035911;28;8848;-59
2022/10/01 00:27:45;;;;;;;;;6.50;6.00;;;;;13.09;63.71;98909.78;5036444;28;8851;-59
2022/10/01 00:30:12;;;;;;;;;9.00;7.50;;;;;13.11;63.31;98906.91;5035621;28;8844;-59
2022/10/01 00:32:40;;;;;;;;;4.50;3.75;;;;;13.11;62.96;98897.09;5036445;28;8848;-60
2022/10/01 00:35:09;;;;;;;;;8.00;8.00;;;;;13.12;63.11;98887.22;5036752;28;8839;-59
2022/10/01 00:37:37;;;;;;;;;6.50;6.00;;;;;13.12;63.16;98890.72;5036663;28;8820;-58
2022/10/01 00:40:05;;;;;;;;;6.00;4.00;;;;;13.12;63.85;98882.72;5034478;28;8836;-61
2022/10/01 00:42:32;;;;;;;;;5.50;4.00;;;;;13.12;63.43;98871.16;5027050;28;9497;-60
2022/10/01 00:45:01;;;;;;;;;6.50;6.50;;;;;13.12;62.99;98876.50;5035602;28;8918;-59
2022/10/01 00:47:29;;;;;;;;;5.00;4.00;;;;;13.14;63.58;98871.88;5036262;28;8844;-60
2022/10/01 00:49:56;;;;;;;;;4.00;1.50;;;;;13.15;63.23;98870.84;5036084;28;8820;-60
2022/10/01 00:52:27;;;;;;;;;4.00;4.00;;;;;13.15;63.62;98869.00;5036093;28;8832;-59
2022/10/01 00:54:55;;;;;;;;;9.00;6.25;;;;;13.14;63.41;98866.53;5036363;28;8848;-61
2022/10/01 00:57:24;;;;;;;;;4.00;4.00;;;;;13.12;63.06;98871.16;5035741;28;8843;-62
2022/10/01 00:59:52;;;;;;;;;6.50;6.25;;;;;13.11;63.43;98859.66;5035778;28;8978;-60
2022/10/01 01:02:20;;;;;;;;;6.00;6.00;;;;;13.13;63.15;98867.53;5035994;28;8843;-59
2022/10/01 01:04:47;;;;;;;;;5.50;4.50;;;;;13.12;63.43;98855.13;5035486;28;8832;-61
2022/10/01 01:07:15;;;;;;;;;4.00;3.75;;;;;13.09;63.42;98850.13;5035738;28;8931;-61
2022/10/01 01:09:43;;;;;;;;;7.00;7.00;;;;;13.10;63.50;98851.78;5035304;28;8946;-61
2022/10/01 01:12:11;;;;;;;;;6.50;6.50;;;;;13.08;63.35;98857.28;5035623;28;8924;-59
2022/10/01 01:14:38;;;;;;;;;5.50;4.00;;;;;13.10;63.59;98846.44;5035934;28;8842;-61
2022/10/01 01:17:07;;;;;;;;;6.00;6.00;;;;;13.09;63.77;98826.91;5035567;28;8852;-61
2022/10/01 01:19:35;;;;;;;;;3.50;3.50;;;;;13.12;63.53;98833.75;5035441;28;8859;-60
2022/10/01 01:22:04;;;;;;;;;6.00;4.00;;;;;13.12;63.56;98825.72;5035396;28;8842;-60
2022/10/01 01:24:32;;;;;;;;;3.00;3.00;;;;;13.10;63.75;98809.88;5035738;28;8847;-61
2022/10/01 01:26:59;;;;;;;;;4.00;4.00;;;;;13.11;63.58;98800.00;5035246;28;8855;-60
2022/10/01 01:29:27;;;;;;;;;4.00;4.00;;;;;13.11;63.27;98816.03;5033620;28;8831;-60
2022/10/01 01:31:54;;;;;;;;;6.00;5.50;;;;;13.07;63.67;98809.38;5032585;28;8858;-60
2022/10/01 01:34:22;;;;;;;;;6.00;5.50;;;;;13.00;63.99;98825.22;5034579;28;8827;-61
2022/10/01 01:36:53;;;;;;;;;4.00;4.00;;;;;12.87;64.29;98818.66;5035068;28;8828;-61
2022/10/01 01:39:20;;;;;;;;;7.50;6.50;;;;;12.65;64.67;98819.25;5034899;28;8867;-61
2022/10/01 01:41:48;;;;;;;;;5.50;5.00;;;;;12.37;65.63;98810.66;5034237;28;8928;-59
2022/10/01 01:44:16;;;;;;;;;7.00;7.00;;;;;12.10;67.28;98810.03;5034395;28;8819;-59
2022/10/01 01:46:45;;;;;;;;;5.50;5.50;;;;;11.85;67.52;98802.91;5034351;28;8836;-61
2022/10/01 01:49:16;;;;;;;;;3.25;3.00;;;;;11.67;68.03;98785.28;5034949;28;8886;-61
2022/10/01 01:51:44;;;;;;;;;4.00;4.00;;;;;11.52;68.53;98784.97;5034560;28;8943;-60
2022/10/01 01:54:11;;;;;;;;;6.00;5.50;;;;;11.38;69.55;98785.53;5035036;28;8862;-61
2022/10/01 01:56:39;;;;;;;;;7.00;7.00;;;;;11.29;69.59;98780.31;5034085;28;8835;-60
2022/10/01 01:59:07;;;;;;;;;7.00;6.75;;;;;11.19;70.27;98772.41;5034256;28;8859;-61
2022/10/01 02:01:36;;;;;;;;;4.00;4.00;;;;;11.12;70.45;98758.03;5034041;28;8946;-59
2022/10/01 02:04:04;;;;;;;;;0.75;0.75;;;;;11.06;71.06;98744.50;5033835;28;8876;-59
2022/10/01 02:06:32;;;;;;;;;1.00;1.00;;;;;10.99;72.11;98736.28;5034226;28;8950;-58
2022/10/01 02:08:59;;;;;;;;;6.75;6.75;;;;;10.94;72.25;98703.91;5033572;28;8867;-59
2022/10/01 02:11:27;;;;;;;;;6.25;6.25;;;;;10.91;73.00;98714.09;5032409;28;8954;-59
2022/10/01 02:13:55;;;;;;;;;8.00;8.00;;;;;10.87;73.00;98713.53;5022496;28;8936;-58
2022/10/01 02:16:22;;;;;;;;;6.00;5.50;;;;;10.82;73.32;98689.19;5035765;28;8854;-59
2022/10/01 02:18:50;;;;;;;;;4.75;4.75;;;;;10.79;73.73;98676.19;5037476;28;9906;-59
2022/10/01 02:21:18;;;;;;;;;6.50;6.50;;;;;10.76;74.15;98679.16;5037309;28;8847;-58
2022/10/01 02:23:45;;;;;;;;;1.00;1.00;;;;;10.74;73.83;98681.16;5037807;28;8832;-59
2022/10/01 02:26:13;;;;;;;;;6.50;6.25;;;;;10.72;74.47;98667.16;5038205;28;8831;-60
2022/10/01 02:28:41;;;;;;;;;5.00;5.00;;;;;10.71;74.62;98654.00;5038462;28;8820;-61
2022/10/01 02:31:09;;;;;;;;;6.00;6.00;;;;;10.69;75.47;98655.97;5038382;28;8839;-62
2022/10/01 02:33:36;;;;;;;;;5.50;4.00;;;;;10.67;75.33;98672.09;5036776;28;8864;-62
2022/10/01 02:36:04;;;;;;;;;2.00;2.00;;;;;10.67;75.61;98676.56;5037216;28;8832;-62
2022/10/01 02:38:32;;;;;;;;;6.00;6.00;;;;;10.67;75.49;98674.75;5038250;28;8929;-61
2022/10/01 02:41:00;;;;;;;;;5.50;5.50;;;;;10.65;75.84;98676.75;5037889;28;8840;-61
2022/10/01 02:43:28;;;;;;;;;4.50;4.50;;;;;10.67;76.02;98663.25;5037587;28;9561;-59
2022/10/01 02:45:56;;;;;;;;;6.50;5.00;;;;;10.66;76.03;98641.16;5037400;28;9560;-61
2022/10/01 02:48:26;;;;;;;;;4.00;4.00;;;;;10.68;76.04;98663.13;5037350;28;8998;-60
2022/10/01 02:50:54;;;;;;;;;4.50;4.50;;;;;10.69;76.51;98664.78;5037345;28;8852;-60
2022/10/01 02:53:21;;;;;;;;;0.00;0.00;;;;;10.71;76.60;98672.63;5037631;28;8875;-60
2022/10/01 02:55:49;;;;;;;;;6.00;4.50;;;;;10.71;76.27;98638.00;5037616;28;8919;-59
2022/10/01 02:58:16;;;;;;;;;4.00;4.00;;;;;10.71;76.90;98652.16;5037828;28;8824;-59
2022/10/01 03:00:44;;;;;;;;;4.50;4.50;;;;;10.70;77.00;98663.78;5037902;28;8844;-61
2022/10/01 03:03:12;;;;;;;;;4.00;4.00;;;;;10.70;77.18;98652.31;5037683;28;9452;-59
2022/10/01 03:05:40;;;;;;;;;5.00;3.75;;;;;10.69;77.17;98637.34;5038340;28;8929;-60
2022/10/01 03:08:07;;;;;;;;;3.00;3.00;;;;;10.67;77.59;98642.81;5038253;28;9540;-60
2022/10/01 03:10:35;;;;;;;;;6.00;5.00;;;;;10.68;77.68;98631.16;5037208;28;8842;-59
2022/10/01 03:13:06;;;;;;;;;4.00;4.00;;;;;10.65;78.05;98627.97;5037895;28;8820;-60
2022/10/01 03:15:34;;;;;;;;;3.50;3.50;;;;;10.64;78.15;98640.47;5037999;28;8917;-60
2022/10/01 03:18:01;;;;;;;;;4.00;4.00;;;;;10.63;78.52;98625.47;5038168;28;8971;-60
2022/10/01 03:20:29;;;;;;;;;3.50;3.00;;;;;10.62;78.56;98618.47;5037922;28;8854;-60
2022/10/01 03:22:56;;;;;;;;;3.00;3.00;;;;;10.61;78.65;98608.81;5037494;28;8901;-60
2022/10/01 03:25:24;;;;;;;;;3.25;3.00;;;;;10.61;79.16;98605.34;5037800;28;8843;-62
2022/10/01 03:27:52;;;;;;;;;2.00;2.00;;;;;10.59;79.09;98597.50;5036486;28;8832;-60
2022/10/01 03:30:21;;;;;;;;;3.00;3.00;;;;;10.59;79.03;98586.84;5037956;28;8828;-60
2022/10/01 03:32:48;;;;;;;;;4.00;4.00;;;;;10.58;79.41;98595.84;5037561;28;8844;-60
2022/10/01 03:35:16;;;;;;;;;4.75;4.75;;;;;10.59;79.33;98586.84;5037636;28;8820;-61
2022/10/01 03:37:43;;;;;;;;;4.00;3.00;;;;;10.60;79.50;98587.66;5036810;28;8929;-61
2022/10/01 03:40:11;;;;;;;;;4.00;4.00;;;;;10.58;79.69;98601.16;5036676;28;8836;-60
2022/10/01 03:42:38;;;;;;;;;3.00;3.00;;;;;10.58;79.64;98577.19;5036506;28;8846;-62
2022/10/01 03:45:06;;;;;;;;;3.50;1.00;;;;;10.57;79.82;98586.19;5036695;28;8859;-59
2022/10/01 03:47:33;;;;;;;;;5.50;4.00;;;;;10.57;80.22;98590.66;5036929;28;8848;-59
2022/10/01 03:50:01;;;;;;;;;4.50;4.00;;;;;10.56;80.19;98600.44;5037124;28;8852;-61
2022/10/01 03:52:29;;;;;;;;;4.00;4.00;;;;;10.57;80.27;98610.13;5037251;28;8816;-62
2022/10/01 03:54:56;;;;;;;;;4.50;4.00;;;;;10.59;80.02;98612.63;5037888;28;8918;-59
2022/10/01 03:57:24;;;;;;;;;3.00;3.00;;;;;10.58;80.08;98609.13;5037655;28;8874;-61
2022/10/01 03:59:52;;;;;;;;;3.75;3.25;;;;;10.60;80.84;98603.63;5037669;28;8878;-59
2022/10/01 04:02:20;;;;;;;;;4.00;3.00;;;;;10.60;80.58;98590.34;5036930;28;8832;-60
2022/10/01 04:04:48;;;;;;;;;3.00;3.00;;;;;10.61;80.18;98597.34;5037755;28;8843;-60
2022/10/01 04:07:16;;;;;;;;;4.00;3.75;;;;;10.61;80.62;98589.38;5037810;28;8921;-60
2022/10/01 04:09:44;;;;;;;;;4.00;4.00;;;;;10.62;80.21;98575.06;5037584;28;8893;-60
2022/10/01 04:12:11;;;;;;;;;3.00;3.00;;;;;10.64;80.69;98589.03;5037213;28;8864;-59
2022/10/01 04:14:39;;;;;;;;;3.50;3.50;;;;;10.64;80.48;98576.59;5037143;28;8921;-60
2022/10/01 04:17:06;;;;;;;;;1.00;1.00;;;;;10.66;80.59;98555.97;5037912;28;8820;-61
2022/10/01 04:19:34;;;;;;;;;3.75;3.75;;;;;10.66;80.15;98545.31;5037118;28;8835;-60
2022/10/01 04:22:02;;;;;;;;;3.00;3.00;;;;;10.67;80.65;98523.00;5037379;28;8832;-59
2022/10/01 04:24:30;;;;;;;;;0.50;0.00;;;;;10.65;80.87;98501.06;5036982;28;8875;-59
2022/10/01 04:26:57;;;;;;;;;1.00;1.00;;;;;10.65;81.16;98490.41;5036982;28;8851;-60
2022/10/01 04:29:25;;;;;;;;;3.25;2.50;;;;;10.65;81.21;98479.75;5037168;28;8839;-59
2022/10/01 04:31:53;;;;;;;;;3.50;3.00;;;;;10.67;81.66;98498.22;5017297;28;8855;-60
2022/10/01 04:34:51;;;;;;;;;2.00;2.00;;;;;10.66;82.10;98507.19;5017602;28;9686;-62
2022/10/01 04:37:09;;;;;;;;;4.00;3.50;;;;;10.67;81.85;98485.75;5017358;28;8834;-59
2022/10/01 04:39:38;;;;;;;;;1.00;1.00;;;;;10.66;82.04;98492.06;5018681;28;8826;-60
2022/10/01 04:42:05;;;;;;;;;1.00;1.00;;;;;10.67;81.91;98504.38;5036650;28;8839;-60
2022/10/01 04:44:33;;;;;;;;;3.00;3.00;;;;;10.68;82.38;98495.41;5037273;28;8891;-60
2022/10/01 04:47:00;;;;;;;;;1.00;1.00;;;;;10.69;82.76;98505.06;5037361;28;8909;-59
2022/10/01 04:49:28;;;;;;;;;2.50;1.00;;;;;10.70;82.33;98476.63;5036943;28;8847;-60
2022/10/01 04:51:56;;;;;;;;;3.00;3.00;;;;;10.72;82.47;98491.44;5017195;28;8838;-60
2022/10/01 04:54:24;;;;;;;;;0.00;0.00;;;;;10.74;82.58;98485.94;5017329;28;8830;-59
2022/10/01 04:56:52;;;;;;;;;1.00;1.00;;;;;10.77;83.11;98509.59;5017158;28;8846;-60
2022/10/01 04:59:19;;;;;;;;;1.00;1.00;;;;;10.78;83.23;98505.94;5017276;28;8850;-60
2022/10/01 05:01:48;;;;;;;;;1.00;0.75;;;;;10.80;82.82;98503.94;5035219;28;9481;-59
2022/10/01 05:04:17;;;;;;;;;1.00;1.00;;;;;10.81;82.92;98473.66;5036852;28;8859;-60
2022/10/01 05:06:44;;;;;;;;;0.00;0.00;;;;;10.84;82.83;98481.34;5037011;28;8917;-60
2022/10/01 05:09:12;;;;;;;;;0.00;0.00;;;;;10.89;82.60;98473.69;5036669;28;8848;-60
2022/10/01 05:11:40;;;;;;;;;1.00;1.00;;;;;10.95;82.53;98479.22;5036043;28;8812;-60
2022/10/01 05:14:07;;;;;;;;;1.00;1.00;;;;;11.03;82.53;98481.94;5036934;28;8918;-60
2022/10/01 05:16:36;;;;;;;;;1.00;1.00;;;;;11.13;82.13;98493.28;5036886;28;8962;-60
2022/10/01 05:19:04;;;;;;;;;0.25;0.25;;;;;11.22;82.38;98499.47;5036355;28;8836;-60
2022/10/01 05:21:31;;;;;;;;;0.75;0.75;;;;;11.30;81.64;98497.66;5035453;28;8852;-59
2022/10/01 05:24:00;;;;;;;;;0.00;0.00;;;;;11.38;81.74;98486.19;5036402;28;8836;-59
2022/10/01 05:26:28;;;;;;;;;1.00;1.00;;;;;11.42;81.38;98468.88;5035911;28;8835;-60
2022/10/01 05:28:56;;;;;;;;;1.00;1.00;;;;;11.47;81.54;98456.75;5036026;28;8851;-59
2022/10/01 05:31:24;;;;;;;;;2.00;2.00;;;;;11.52;81.22;98472.25;5035569;28;8874;-59
2022/10/01 05:33:51;;;;;;;;;1.00;1.00;;;;;11.56;81.26;98465.56;5036328;28;8856;-59
2022/10/01 05:36:19;;;;;;;;;1.00;1.00;;;;;11.61;81.15;98471.28;5036380;28;8934;-59
2022/10/01 05:38:47;;;;;;;;;0.50;0.50;;;;;11.64;81.05;98469.13;5036005;28;8848;-60
2022/10/01 05:41:15;;;;;;;;;1.00;1.00;;;;;11.70;80.43;98475.63;5036283;28;8870;-61
2022/10/01 05:43:43;;;;;;;;;0.25;0.25;;;;;11.78;80.50;98497.81;5036098;28;8832;-60
2022/10/01 05:46:11;;;;;;;;;0.75;0.75;;;;;11.82;80.43;98477.81;5035611;28;8840;-59
2022/10/01 05:48:39;;;;;;;;;1.00;1.00;;;;;11.87;79.92;98486.16;5035666;28;8890;-60
2022/10/01 05:51:07;;;;;;;;;1.00;1.00;;;;;11.91;80.37;98490.13;5034760;28;8819;-60
2022/10/01 05:53:36;;;;;;;;;0.00;0.00;;;;;11.94;80.14;98500.50;5035688;28;8848;-62
2022/10/01 05:56:03;;;;;;;;;1.50;0.00;;;;;11.96;79.77;98511.81;5035231;28;8949;-60
2022/10/01 05:58:31;;;;;;;;;0.25;0.25;;;;;11.94;80.53;98506.66;5035500;28;8832;-59
2022/10/01 06:00:58;;;;;;;;;0.00;0.00;;;;;11.88;80.05;98505.63;5035213;28;8832;-59
2022/10/01 06:03:27;;;;;;;;;1.00;1.00;;;;;11.84;80.83;98512.31;5035624;28;8867;-60
2022/10/01 06:05:55;;;;;;;;;0.00;0.00;;;;;11.84;80.56;98515.78;5035373;28;8851;-60
2022/10/01 06:08:23;;;;;;;;;0.00;0.00;;;;;11.89;80.83;98536.69;5035683;28;8831;-59
2022/10/01 06:10:51;;;;;;;;;0.00;0.00;;;;;11.87;80.75;98542.16;5035557;28;8823;-60
2022/10/01 06:13:18;;;;;;;;;1.00;1.00;;;;;11.81;81.57;98533.97;5035452;28;8909;-60
2022/10/01 06:15:46;;;;;;;;;0.00;0.00;;;;;11.74;81.20;98538.31;5035542;28;8949;-59
2022/10/01 06:18:14;;;;;;;;;0.00;0.00;;;;;11.67;81.44;98543.44;5035646;28;8955;-60
2022/10/01 06:20:42;;;;;;;;;0.00;0.00;;;;;11.65;81.93;98564.13;5035045;28;8828;-59
2022/10/01 06:23:11;;;;;;;;;0.50;0.25;;;;;11.63;82.10;98539.44;5034467;28;8895;-60
2022/10/01 06:25:38;;;;;;;;;0.00;0.00;;;;;11.65;82.14;98550.78;5034325;28;8836;-60
2022/10/01 06:28:06;;;;;;;;;0.00;0.00;;;;;11.67;82.28;98555.97;5034296;28;8860;-59
2022/10/01 06:30:35;;;;;;;;;0.00;0.00;;;;;11.71;81.56;98552.81;5033827;28;8827;-60
2022/10/01 06:33:03;;;;;;;;;0.00;0.00;;;;;11.74;81.62;98560.47;5034271;28;8852;-60
2022/10/01 06:35:31;;;;;;;;;0.00;0.00;;;;;11.70;81.66;98567.13;5034411;28;8846;-60
2022/10/01 06:38:00;;;;;;;;;1.00;1.00;;;;;11.67;81.76;98570.09;5034843;28;8871;-60
2022/10/01 06:40:28;;;;;;;;;0.00;0.00;;;;;11.66;82.26;98571.13;5034691;28;8832;-60
2022/10/01 06:42:57;;;;;;;;;0.00;0.00;;;;;11.65;81.48;98577.44;5034877;28;8839;-60
2022/10/01 06:45:25;;;;;;;;;0.00;0.00;;;;;11.63;82.00;98584.78;5034552;28;8839;-60
2022/10/01 06:47:53;;;;;;;;;0.00;0.00;;;;;11.63;82.18;98574.13;5034379;28;8868;-60
2022/10/01 06:50:22;;;;;;;;;0.00;0.00;;;;;11.63;81.83;98583.94;5034547;28;8816;-60
2022/10/01 06:52:51;;;;;;;;;0.00;0.00;;;;;11.63;81.98;98584.78;5034636;28;8923;-60
2022/10/01 06:55:19;;;;;;;;;0.00;0.00;;;;;11.62;81.91;98590.25;5033608;28;8928;-60
2022/10/01 06:57:46;;;;;;;;;0.00;0.00;;;;;11.62;82.20;98583.13;5033214;28;8848;-59
2022/10/01 07:00:14;;;;;;;;;0.00;0.00;;;;;11.63;82.35;98583.94;5032924;28;8825;-60
2022/10/01 07:02:42;;;;;;;;;0.00;0.00;;;;;11.63;82.29;98579.44;5035797;28;8852;-60
2022/10/01 07:05:11;;;;;;;;;0.00;0.00;;;;;11.64;81.90;98575.78;5036790;28;8854;-60
2022/10/01 07:07:39;;;;;;;;;0.00;0.00;;;;;11.63;82.03;98584.78;5037215;28;8862;-60
2022/10/01 07:10:06;;;;;;;;;0.00;0.00;;;;;11.64;82.38;98575.78;5035553;28;8828;-61
2022/10/01 07:12:34;;;;;;;;;0.00;0.00;;;;;11.64;82.33;98574.94;5036132;28;8832;-60
2022/10/01 07:15:02;;;;;;;;;0.00;0.00;;;;;11.64;82.72;98581.13;5036660;28;8859;-61
2022/10/01 07:17:30;;;;;;;;;0.00;0.00;;;;;11.66;82.41;98583.59;5035768;28;8855;-60
2022/10/01 07:19:58;;;;;;;;;0.00;0.00;;;;;11.66;82.14;98576.44;5036187;28;8828;-60
2022/10/01 07:22:26;;;;;;;;;0.00;0.00;;;;;11.69;82.81;98589.44;5036495;28;8827;-63
2022/10/01 07:24:53;;;;;;;;;0.00;0.00;;;;;11.69;82.94;98578.78;5036896;28;8917;-59
2022/10/01 07:27:21;;;;;;;;;0.00;0.00;;;;;11.72;82.70;98574.94;5035842;28;8867;-60
2022/10/01 07:29:49;;;;;;;;;0.00;0.00;;;;;11.76;83.00;98568.31;5036375;28;8844;-60
2022/10/01 07:32:17;;;;;;;;;0.00;0.00;;;;;11.80;82.37;98580.31;5036311;28;8864;-60
2022/10/01 07:34:45;;;;;;;;;0.00;0.00;;;;;11.82;82.73;98571.16;5036803;28;8839;-60
2022/10/01 07:37:13;;;;;;;;;0.00;0.00;;;;;11.86;82.48;98585.84;5036498;28;8895;-60
2022/10/01 07:39:41;;;;;;;;;0.00;0.00;;;;;11.89;82.74;98579.34;5036389;28;8898;-61
2022/10/01 07:42:09;;;;;;;;;0.00;0.00;;;;;11.94;81.97;98583.19;5036419;28;8881;-61
2022/10/01 07:44:37;;;;;;;;;0.00;0.00;;;;;12.01;81.68;98590.34;5036632;28;8835;-60
2022/10/01 07:47:05;;;;;;;;;0.75;0.00;;;;;12.04;81.84;98594.53;5036847;28;8831;-60
2022/10/01 07:49:33;;;;;;;;;0.00;0.00;;;;;12.04;82.08;98607.88;5036289;28;8840;-62
2022/10/01 07:52:01;;;;;;;;;0.50;0.50;;;;;12.01;81.61;98605.56;5035682;28;8878;-60
2022/10/01 07:54:29;;;;;;;;;0.00;0.00;;;;;12.02;81.47;98612.56;5035186;28;8967;-60
2022/10/01 07:56:58;;;;;;;;;1.00;1.00;;;;;12.01;81.91;98606.38;5035538;28;8860;-60
2022/10/01 07:59:26;;;;;;;;;0.00;0.00;;;;;11.99;81.47;98611.03;5035304;28;8852;-61
2022/10/01 08:01:54;;;;;;;;;1.00;1.00;;;;;12.00;81.80;98619.91;5035423;28;8851;-61
2022/10/01 08:07:07;;;;;;;;;1.00;1.00;;;;;12.04;81.44;98613.22;5035358;28;8985;-61
2022/10/01 08:09:35;;;;;;;;;2.00;2.00;;;;;12.03;81.71;98624.88;5035435;28;8835;-61
2022/10/01 08:12:03;;;;;;;;;0.00;0.00;;;;;12.03;81.61;98616.88;5035884;28;8848;-60
2022/10/01 08:14:30;;;;;;;;;1.50;0.75;;;;;12.05;80.97;98622.88;5034511;28;8860;-61
2022/10/01 08:16:58;;;;;;;;;1.00;1.00;;;;;12.06;81.26;98612.06;5034753;28;8886;-61
2022/10/01 08:19:28;;;;;;;;;0.75;0.75;;;;;12.09;81.17;98625.06;5034664;28;9889;-60
2022/10/01 08:21:55;;;;;;;;;1.00;1.00;;;;;12.13;80.86;98625.56;5014800;28;8869;-60
2022/10/01 08:24:23;;;;;;;;;0.50;0.50;;;;;12.14;81.00;98628.09;5015115;28;8858;-60
2022/10/01 08:26:51;;;;;;;;;1.00;1.00;;;;;12.16;80.83;98635.94;5014808;28;8870;-61
2022/10/01 08:29:19;;;;;;;;;1.00;1.00;;;;;12.18;80.97;98634.78;5025989;28;8948;-61
2022/10/01 08:31:48;;;;;;;;;0.33;0.33;;;;;12.24;80.94;98635.94;5034074;28;8839;-60
2022/10/01 08:34:15;;;;;;;;;1.00;1.00;;;;;12.33;81.25;98640.28;5034247;28;8884;-61
2022/10/01 08:36:44;;;;;;;;;3.00;3.00;;;;;12.42;81.12;98639.28;5034363;28;8870;-60
2022/10/01 08:39:12;;;;;;;;;3.00;2.00;;;;;12.48;81.20;98641.31;5033701;28;8836;-60
2022/10/01 08:41:41;;;;;;;;;1.50;1.00;;;;;12.56;81.02;98638.63;5033738;28;8890;-60
2022/10/01 08:44:09;;;;;;;;;1.50;1.00;;;;;12.68;80.70;98645.34;5033824;28;8851;-61
2022/10/01 08:46:37;;;;;;;;;1.00;1.00;;;;;12.81;80.83;98645.66;5033788;28;8925;-59
2022/10/01 08:49:05;;;;;;;;;4.00;3.00;;;;;12.89;80.07;98648.31;5033884;28;9494;-60
2022/10/01 08:51:32;;;;;;;;;2.50;2.50;;;;;13.00;80.15;98648.00;5033986;28;8859;-60
2022/10/01 08:54:01;;;;;;;;;2.00;1.00;;;;;13.10;79.65;98665.53;5033897;28;8877;-60
2022/10/01 08:56:29;;;;;;;;;1.00;1.00;;;;;13.21;79.53;98656.34;5033879;28;9575;-61
2022/10/01 08:58:56;;;;;;;;;1.00;1.00;;;;;13.33;79.40;98660.31;5033430;28;8839;-60
2022/10/01 09:01:24;;;;;;;;;1.50;1.00;;;;;13.43;78.92;98677.03;5033463;28;8843;-60
2022/10/01 09:03:52;;;;;;;;;1.00;1.00;;;;;13.47;78.63;98678.31;5034091;28;8840;-61
2022/10/01 09:06:20;;;;;;;;;1.00;1.00;;;;;13.51;78.75;98680.47;5034767;28;9764;-61
2022/10/01 09:08:49;;;;;;;;;1.00;1.00;;;;;13.56;78.94;98685.31;5034000;28;8836;-60
2022/10/01 09:11:16;;;;;;;;;0.00;0.00;;;;;13.61;78.92;98686.50;5034112;28;8920;-61
2022/10/01 09:13:45;;;;;;;;;2.00;2.00;;;;;13.68;78.30;98681.28;5033386;28;8855;-60
2022/10/01 09:16:16;;;;;;;;;1.00;1.00;;;;;13.76;78.29;98690.13;5033219;28;8856;-60
2022/10/01 09:18:45;;;;;;;;;1.50;1.50;;;;;13.84;78.12;98697.28;5031772;28;8842;-61
2022/10/01 09:21:13;;;;;;;;;1.00;1.00;;;;;13.91;78.40;98693.75;5032240;28;8933;-60
2022/10/01 09:23:41;;;;;;;;;1.00;1.00;;;;;13.99;77.75;98691.03;5032534;28;8851;-61
2022/10/01 09:26:09;;;;;;;;;1.00;1.00;;;;;14.05;78.15;98694.84;5031961;28;8991;-60
2022/10/01 09:28:37;;;;;;;;;1.00;1.00;;;;;14.14;77.83;98691.97;5031313;28;8843;-60
2022/10/01 09:31:05;;;;;;;;;2.00;1.50;;;;;14.25;77.98;98691.59;5032907;28;8856;-60
2022/10/01 09:33:34;;;;;;;;;3.00;3.00;;;;;14.32;77.44;98689.03;5033536;28;8891;-60
2022/10/01 09:36:02;;;;;;;;;3.00;3.00;;;;;14.36;77.37;98693.88;5032759;28;8835;-60
2022/10/01 09:38:29;;;;;;;;;3.00;3.00;;;;;14.37;78.01;98689.34;5032264;28;8847;-60
2022/10/01 09:40:57;;;;;;;;;2.50;1.50;;;;;14.43;77.96;98676.06;5032775;28;8924;-61
2022/10/01 09:43:25;;;;;;;;;3.00;3.00;;;;;14.57;77.60;98680.69;5033091;28;8843;-60
2022/10/01 09:45:55;;;;;;;;;3.25;3.00;;;;;14.71;77.13;98677.22;5033800;28;8864;-60
2022/10/01 09:48:23;;;;;;;;;1.00;1.00;;;;;14.92;76.92;98681.91;5033383;28;8831;-60
2022/10/01 09:50:53;;;;;;;;;2.00;2.00;;;;;15.07;76.37;98675.59;5033661;28;8843;-60
2022/10/01 09:53:21;;;;;;;;;3.00;3.00;;;;;15.19;76.35;98698.28;5033664;28;8856;-60
2022/10/01 09:55:49;;;;;;;;;4.00;4.00;;;;;15.15;76.50;98690.75;5034700;28;8824;-60
2022/10/01 09:58:17;;;;;;;;;6.00;4.00;;;;;15.10;76.67;98698.53;5033998;28;8824;-61
2022/10/01 10:00:47;;;;;;;;;5.50;5.50;;;;;15.06;76.29;98691.84;5033742;28;9557;-60
2022/10/01 10:03:15;;;;;;;;;4.00;4.00;;;;;15.03;76.99;98689.56;5033664;28;8847;-60
2022/10/01 10:05:42;;;;;;;;;5.00;5.00;;;;;15.01;77.30;98700.44;5033243;28;8832;-60
2022/10/01 10:08:11;;;;;;;;;5.75;4.50;;;;;15.05;76.68;98698.25;5033738;28;8847;-60
2022/10/01 10:10:39;;;;;;;;;6.00;4.67;;;;;15.08;76.60;98708.59;5032583;28;8917;-60
2022/10/01 10:13:08;;;;;;;;;9.25;6.75;;;;;15.08;76.91;98717.47;5033102;28;8891;-61
2022/10/01 10:15:36;;;;;;;;;5.50;5.50;;;;;15.05;77.05;98717.84;5033032;28;8832;-61
2022/10/01 10:18:05;;;;;;;;;9.00;6.00;;;;;15.00;77.14;98719.38;5033224;28;8843;-61
2022/10/01 10:20:38;;;;;;;;;7.00;6.00;;;;;14.94;77.13;98723.63;5032531;28;8954;-61
2022/10/01 10:23:07;;;;;;;;;6.00;4.50;;;;;14.91;77.04;98724.00;5032372;28;8844;-61
2022/10/01 10:25:34;;;;;;;;;11.00;7.50;;;;;14.87;77.30;98729.91;5032367;28;8828;-60
2022/10/01 10:28:03;;;;;;;;;5.00;5.00;;;;;14.76;77.57;98746.38;5032174;28;8869;-61
2022/10/01 10:30:32;;;;;;;;;3.75;3.75;;;;;14.62;77.19;98752.47;5032575;28;8843;-60
2022/10/01 10:32:59;;;;;;;;;8.00;6.25;;;;;14.43;78.83;98748.41;5032487;28;8906;-61
2022/10/01 10:35:28;;;;;;;;;7.00;6.00;;;;;14.28;78.53;98743.97;5033171;28;8933;-61
2022/10/01 10:37:56;;;;;;;;;6.00;6.00;;;;;14.16;79.36;98762.25;5036034;28;8946;-61
2022/10/01 10:40:24;;;;;;;;;2.00;2.00;;;;;14.07;79.52;98765.09;5037325;28;8820;-60
2022/10/01 10:42:56;;;;;;;;;3.75;3.00;;;;;13.98;79.52;98763.47;5038022;28;8843;-62
2022/10/01 10:45:28;;;;;;;;;4.00;4.00;;;;;13.91;80.02;98774.03;5037932;28;8910;-61
2022/10/01 10:47:56;;;;;;;;;3.75;3.75;;;;;13.84;80.41;98767.69;5037854;28;8840;-61
2022/10/01 10:50:25;;;;;;;;;4.00;3.75;;;;;13.80;80.11;98761.00;5037247;28;8961;-61
2022/10/01 10:52:53;;;;;;;;;4.00;3.50;;;;;13.80;80.52;98744.94;5036816;28;8902;-62
2022/10/01 10:55:21;;;;;;;;;5.00;3.75;;;;;13.84;80.38;98750.78;5036433;28;8861;-62
2022/10/01 10:57:49;;;;;;;;;3.50;3.25;;;;;13.90;80.25;98755.47;5036910;28;8932;-61
2022/10/01 11:00:24;;;;;;;;;2.00;2.00;;;;;14.04;80.07;98752.91;5036700;28;8848;-61
2022/10/01 11:02:51;;;;;;;;;3.75;3.00;;;;;14.15;80.10;98757.03;5036768;28;8890;-60
2022/10/01 11:05:19;;;;;;;;;0.50;0.50;;;;;14.23;79.50;98755.22;5036638;28;8840;-61
2022/10/01 11:07:47;;;;;;;;;3.50;3.50;;;;;14.45;79.89;98753.59;5035905;28;8971;-60
2022/10/01 11:10:15;;;;;;;;;3.75;3.00;;;;;14.77;79.06;98750.72;5036512;28;8855;-60
2022/10/01 11:12:45;;;;;;;;;3.00;3.00;;;;;15.07;78.23;98747.16;5035957;28;8855;-60
2022/10/01 11:15:13;;;;;;;;;3.75;3.25;;;;;15.46;77.65;98742.50;5035145;28;8852;-61
2022/10/01 11:17:41;;;;;;;;;4.50;3.50;;;;;15.91;76.63;98747.75;5035963;28;8905;-61
2022/10/01 11:20:09;;;;;;;;;3.40;3.40;;;;;16.45;75.75;98741.88;5036938;28;8846;-62
2022/10/01 11:22:37;;;;;;;;;6.00;6.00;;;;;16.96;74.15;98741.66;5036763;28;9860;-60
2022/10/01 11:25:05;;;;;;;;;6.40;4.00;;;;;17.67;72.78;98749.56;5035946;28;8961;-61
2022/10/01 11:27:35;;;;;;;;;4.00;4.00;;;;;18.43;70.59;98749.41;5037525;28;8836;-60
2022/10/01 11:30:03;;;;;;;;;3.60;3.60;;;;;18.62;70.11;98751.38;5036223;28;8860;-61
2022/10/01 11:32:32;;;;;;;;;3.00;3.00;;;;;18.74;70.18;98749.75;5035429;28;8876;-61
2022/10/01 11:35:01;;;;;;;;;5.20;5.20;;;;;18.87;70.06;98757.03;5034792;28;8919;-60
2022/10/01 11:37:29;;;;;;;;;3.00;3.00;;;;;18.71;70.66;98752.84;5033724;28;8941;-61
2022/10/01 11:39:56;;;;;;;;;1.00;1.00;;;;;18.38;71.29;98768.06;5033635;28;8847;-61
2022/10/01 11:42:26;;;;;;;;;1.00;1.00;;;;;18.63;71.23;98774.63;5032999;28;8879;-60
2022/10/01 11:44:56;;;;;;;;;3.00;3.00;;;;;18.69;70.92;98767.56;5034096;28;8924;-61
2022/10/01 11:47:27;;;;;;;;;1.00;1.00;;;;;18.81;70.63;98774.88;5033825;28;8854;-61